Terminal Aerodrome Forecast
Issued by NWS

Home | Current Version | Previous Version | Text Only | Print | Product List | Glossary On
Versions: 1 2 3 4 5 6 7 8 9 10 11 12 13 14 15 16 17 18 19 20 21 22 23
000
FTUS46 KSEW 301700
TAFSEA
TAF
KSEA 301735Z 3018/3124 12011KT P6SM -RA BKN060 OVC090
     FM310000 16008KT P6SM -RA SCT015 OVC030
     FM311100 18005KT 5SM -RA BR SCT008 OVC015
     FM311600 20011KT P6SM -SHRA BKN015 BKN035=

USA.gov is the U.S. government's official web portal to all federal, state and local government web resources and services.